createdAt,value
2022-08-31T00:03:27.378Z,100.00
2022-08-31T00:08:24.137Z,100.00
2022-08-31T00:13:21.721Z,100.00
2022-08-31T00:18:19.893Z,100.00
2022-08-31T00:23:17.139Z,100.00
2022-08-31T00:28:15.066Z,100.00
2022-08-31T00:33:12.089Z,100.00
2022-08-31T00:38:09.859Z,100.00
2022-08-31T00:43:06.509Z,100.00
2022-08-31T00:48:03.613Z,100.00
2022-08-31T00:53:01.259Z,100.00
2022-08-31T00:58:01.558Z,100.00
2022-08-31T01:03:01.763Z,100.00
2022-08-31T01:08:00.406Z,100.00
2022-08-31T01:12:58.592Z,100.00
2022-08-31T01:17:55.663Z,100.00
2022-08-31T01:22:51.953Z,100.00
2022-08-31T01:27:48.656Z,100.00
2022-08-31T01:32:44.982Z,100.00
2022-08-31T01:37:41.891Z,100.00
2022-08-31T01:42:38.553Z,100.00
2022-08-31T01:47:34.901Z,100.00
2022-08-31T01:52:31.234Z,100.00
2022-08-31T01:57:34.139Z,100.00
2022-08-31T02:02:31.080Z,100.00
2022-08-31T02:07:27.503Z,100.00
2022-08-31T02:12:24.165Z,100.00
2022-08-31T02:17:20.558Z,100.00
2022-08-31T02:22:16.901Z,100.00
2022-08-31T02:27:13.370Z,100.00
2022-08-31T02:32:15.670Z,100.00
2022-08-31T02:37:17.619Z,100.00
2022-08-31T02:42:14.109Z,100.00
2022-08-31T02:47:10.420Z,100.00
2022-08-31T02:52:06.780Z,100.00
2022-08-31T02:57:03.222Z,100.00
2022-08-31T03:01:59.689Z,100.00
2022-08-31T03:06:56.096Z,100.00
2022-08-31T03:11:52.734Z,100.00
2022-08-31T03:16:51.750Z,100.00
2022-08-31T03:21:48.332Z,100.00
2022-08-31T03:26:52.273Z,100.00
2022-08-31T03:31:48.664Z,100.00
2022-08-31T03:36:45.075Z,100.00
2022-08-31T03:41:41.438Z,100.00
2022-08-31T03:46:39.625Z,100.00
2022-08-31T03:51:35.949Z,100.00
2022-08-31T03:56:32.726Z,100.00
2022-08-31T04:01:29.159Z,100.00
2022-08-31T04:06:25.549Z,100.00
2022-08-31T04:11:25.459Z,100.00
2022-08-31T04:16:40.090Z,100.00
2022-08-31T04:21:36.434Z,100.00
2022-08-31T04:26:37.077Z,100.00
2022-08-31T04:31:35.582Z,100.00
2022-08-31T04:36:32.625Z,100.00
2022-08-31T04:41:31.505Z,100.00
2022-08-31T04:46:28.847Z,100.00
2022-08-31T04:51:31.092Z,100.00
2022-08-31T04:56:32.122Z,100.00
2022-08-31T05:01:43.049Z,100.00
2022-08-31T05:06:42.940Z,100.00
2022-08-31T05:11:40.452Z,100.00
2022-08-31T05:16:41.247Z,100.00
2022-08-31T05:21:39.791Z,100.00
2022-08-31T05:26:42.069Z,100.00
2022-08-31T05:31:38.931Z,100.00
2022-08-31T05:36:35.355Z,100.00
2022-08-31T05:41:31.851Z,100.00
2022-08-31T05:46:30.104Z,100.00
2022-08-31T05:51:26.656Z,100.00
2022-08-31T05:56:26.670Z,100.00
2022-08-31T06:01:32.998Z,100.00
2022-08-31T06:06:29.853Z,100.00
2022-08-31T06:11:29.000Z,100.00
2022-08-31T06:16:26.937Z,100.00
2022-08-31T06:21:24.956Z,100.00
2022-08-31T06:26:23.151Z,100.00
2022-08-31T06:31:24.412Z,100.00
2022-08-31T06:36:22.770Z,100.00
2022-08-31T06:41:21.989Z,100.00
2022-08-31T06:46:20.007Z,100.00
2022-08-31T06:51:17.386Z,100.00
2022-08-31T06:56:20.913Z,100.00
2022-08-31T07:01:32.560Z,100.00
2022-08-31T07:06:36.733Z,100.00
2022-08-31T07:11:44.291Z,100.00
2022-08-31T07:16:42.654Z,100.00
2022-08-31T07:21:41.873Z,100.00
2022-08-31T07:26:44.039Z,100.00
2022-08-31T07:31:46.165Z,100.00
2022-08-31T07:37:01.425Z,100.00
2022-08-31T07:42:10.091Z,100.00
2022-08-31T07:47:09.004Z,100.00
2022-08-31T07:52:06.807Z,100.00
2022-08-31T07:57:05.865Z,100.00
2022-08-31T08:02:02.876Z,100.00
2022-08-31T08:07:00.458Z,100.00
2022-08-31T08:12:04.611Z,100.00
2022-08-31T08:17:02.128Z,100.00
2022-08-31T08:21:59.866Z,100.00
2022-08-31T08:26:56.318Z,100.00
2022-08-31T08:31:54.226Z,100.00
2022-08-31T08:36:52.711Z,100.00
2022-08-31T08:41:51.611Z,100.00
2022-08-31T08:46:52.814Z,100.00
2022-08-31T08:51:54.037Z,100.00
2022-08-31T08:56:50.367Z,100.00
2022-08-31T09:01:49.543Z,100.00
2022-08-31T09:06:58.710Z,100.00
2022-08-31T09:12:20.783Z,100.00
2022-08-31T09:17:34.719Z,100.00
2022-08-31T09:22:33.510Z,100.00
2022-08-31T09:27:45.713Z,100.00
2022-08-31T09:32:55.390Z,100.00
2022-08-31T09:38:09.833Z,100.00
2022-08-31T09:43:13.975Z,100.00
2022-08-31T09:48:34.517Z,100.00
2022-08-31T09:53:58.529Z,100.00
2022-08-31T09:59:04.922Z,100.00
2022-08-31T10:04:14.640Z,100.00
2022-08-31T10:09:28.503Z,100.00
2022-08-31T10:14:50.758Z,100.00
2022-08-31T10:20:21.038Z,95.23
2022-08-31T10:25:33.107Z,98.39
2022-08-31T10:30:45.158Z,96.95
2022-08-31T10:35:52.950Z,92.20
2022-08-31T10:41:16.746Z,100.00
2022-08-31T10:46:15.500Z,100.00
2022-08-31T10:51:26.881Z,100.00
2022-08-31T10:56:58.884Z,100.00
2022-08-31T11:02:02.033Z,96.14
2022-08-31T11:07:15.512Z,89.86
2022-08-31T11:12:21.572Z,86.64
2022-08-31T11:17:59.881Z,87.88
2022-08-31T11:23:20.639Z,86.13
2022-08-31T11:28:33.866Z,86.75
2022-08-31T11:33:31.271Z,88.47
2022-08-31T11:38:52.591Z,84.79
2022-08-31T11:43:52.308Z,80.05
2022-08-31T11:48:53.579Z,77.71
2022-08-31T11:53:52.792Z,86.27
2022-08-31T11:59:28.987Z,81.42
2022-08-31T12:04:41.992Z,84.44
2022-08-31T12:10:03.384Z,75.44
2022-08-31T12:15:24.561Z,76.54
2022-08-31T12:21:03.220Z,75.21
2022-08-31T12:26:24.613Z,72.15
2022-08-31T12:31:21.163Z,66.89
2022-08-31T12:36:24.736Z,70.05
2022-08-31T12:41:25.221Z,65.84
2022-08-31T12:46:37.041Z,69.83
2022-08-31T12:51:58.168Z,62.85
2022-08-31T12:57:06.741Z,64.88
2022-08-31T13:02:03.364Z,66.86
2022-08-31T13:07:18.975Z,65.31
2022-08-31T13:12:23.808Z,66.88
2022-08-31T13:17:21.937Z,66.31
2022-08-31T13:22:48.310Z,65.36
2022-08-31T13:27:52.242Z,63.60
2022-08-31T13:32:51.075Z,61.69
2022-08-31T13:38:04.885Z,59.69
2022-08-31T13:43:01.783Z,58.46
2022-08-31T13:48:01.434Z,57.80
2022-08-31T13:53:25.297Z,57.91
2022-08-31T13:58:29.048Z,59.74
2022-08-31T14:03:45.094Z,60.03
2022-08-31T14:08:48.640Z,59.98
2022-08-31T14:13:50.181Z,59.90
2022-08-31T14:18:48.043Z,59.15
2022-08-31T14:23:49.050Z,57.73
2022-08-31T14:28:48.398Z,57.01
2022-08-31T14:33:44.748Z,57.07
2022-08-31T14:38:42.644Z,57.16
2022-08-31T14:43:43.713Z,56.59
2022-08-31T14:48:43.048Z,57.33
2022-08-31T14:53:40.055Z,54.71
2022-08-31T14:58:41.759Z,54.14
2022-08-31T15:03:40.228Z,52.25
2022-08-31T15:08:38.955Z,51.83
2022-08-31T15:13:39.162Z,54.27
2022-08-31T15:18:36.027Z,52.65
2022-08-31T15:23:33.610Z,50.21
2022-08-31T15:28:31.655Z,49.49
2022-08-31T15:33:29.406Z,48.48
2022-08-31T15:38:25.986Z,48.79
2022-08-31T15:43:22.455Z,49.01
2022-08-31T15:48:52.282Z,46.91
2022-08-31T15:54:11.676Z,47.43
2022-08-31T15:59:10.223Z,47.25
2022-08-31T16:04:06.908Z,45.72
2022-08-31T16:09:04.289Z,45.41
2022-08-31T16:14:01.021Z,45.29
2022-08-31T16:18:58.406Z,44.00
2022-08-31T16:24:00.777Z,44.00
2022-08-31T16:28:58.794Z,44.17
2022-08-31T16:33:55.892Z,43.57
2022-08-31T16:38:54.502Z,42.78
2022-08-31T16:44:03.670Z,40.10
2022-08-31T16:49:26.490Z,33.50
2022-08-31T16:54:23.797Z,28.07
2022-08-31T16:59:20.207Z,25.47
2022-08-31T17:04:35.056Z,25.68
2022-08-31T17:09:38.219Z,25.22
2022-08-31T17:14:43.304Z,25.60
2022-08-31T17:19:42.064Z,26.10
2022-08-31T17:24:45.357Z,25.78
2022-08-31T17:29:45.318Z,26.30
2022-08-31T17:34:43.125Z,27.08
2022-08-31T17:39:41.249Z,28.15
2022-08-31T17:44:37.772Z,32.29
2022-08-31T17:49:37.669Z,36.77
2022-08-31T17:54:40.154Z,39.62
2022-08-31T17:59:39.909Z,41.10
2022-08-31T18:04:37.796Z,42.75
2022-08-31T18:09:37.441Z,44.49
2022-08-31T18:14:35.545Z,46.47
2022-08-31T18:19:33.456Z,46.34
2022-08-31T18:24:34.165Z,48.26
2022-08-31T18:29:34.050Z,48.75
2022-08-31T18:34:33.049Z,49.76
2022-08-31T18:39:50.994Z,51.37
2022-08-31T18:45:06.714Z,52.16
2022-08-31T18:50:03.765Z,53.23
2022-08-31T18:55:00.678Z,53.06
2022-08-31T19:00:00.426Z,54.55
2022-08-31T19:04:56.931Z,56.64
2022-08-31T19:09:53.404Z,56.85
2022-08-31T19:14:52.276Z,58.04
2022-08-31T19:19:50.015Z,59.33
2022-08-31T19:24:49.908Z,58.85
2022-08-31T19:29:46.637Z,58.36
2022-08-31T19:34:43.539Z,58.39
2022-08-31T19:39:44.443Z,59.04
2022-08-31T19:49:59.220Z,60.21
2022-08-31T19:54:56.345Z,60.59
2022-08-31T19:59:52.983Z,61.31
2022-08-31T20:04:50.560Z,63.52
2022-08-31T20:09:47.053Z,63.56
2022-08-31T20:14:44.700Z,63.04
2022-08-31T20:19:41.852Z,64.86
2022-08-31T20:24:44.077Z,65.69
2022-08-31T20:29:41.773Z,67.55
2022-08-31T20:34:38.574Z,68.90
2022-08-31T20:39:35.589Z,69.49
2022-08-31T20:44:36.262Z,69.33
2022-08-31T20:49:39.142Z,71.79
2022-08-31T20:54:36.031Z,72.58
2022-08-31T20:59:33.577Z,73.48
2022-08-31T21:04:31.064Z,73.35
2022-08-31T21:09:28.230Z,76.95
2022-08-31T21:14:27.060Z,82.91
2022-08-31T21:19:24.785Z,88.31
2022-08-31T21:24:22.490Z,94.06
2022-08-31T21:29:18.919Z,100.00
2022-08-31T21:34:17.235Z,100.00
2022-08-31T21:39:16.674Z,100.00
2022-08-31T21:44:16.966Z,100.00
2022-08-31T21:49:13.713Z,100.00
2022-08-31T21:54:10.157Z,100.00
2022-08-31T21:59:06.969Z,100.00
2022-08-31T22:04:06.873Z,100.00
2022-08-31T22:09:12.677Z,100.00
2022-08-31T22:14:11.022Z,100.00
2022-08-31T22:19:13.250Z,100.00
2022-08-31T22:24:13.112Z,100.00
2022-08-31T22:29:26.644Z,100.00
2022-08-31T22:34:24.154Z,100.00
2022-08-31T22:39:25.171Z,100.00
2022-08-31T22:44:24.937Z,100.00
2022-08-31T22:49:21.673Z,100.00
2022-08-31T22:54:20.800Z,100.00
2022-08-31T22:59:24.621Z,100.00
2022-08-31T23:04:23.659Z,100.00
2022-08-31T23:09:23.531Z,100.00
2022-08-31T23:14:21.432Z,100.00
2022-08-31T23:19:20.355Z,100.00
2022-08-31T23:24:21.147Z,100.00
2022-08-31T23:29:18.353Z,100.00
2022-08-31T23:34:16.267Z,100.00
2022-08-31T23:39:12.746Z,100.00
2022-08-31T23:44:09.471Z,100.00
2022-08-31T23:49:08.458Z,100.00
2022-08-31T23:54:07.756Z,100.00
2022-08-31T23:59:26.453Z,100.00
